Guadarrama, Spain
Current Conditions -  °F | °C
As of 4:00 PM on Friday 31 Oct 2014 (Local Time) from LEVS Reporting Station
Clear Clear  
Wind Chill: 75°   Ceiling: Unl
Heat Index: 75°   Visibility: 6mi
Dew Point: 43°   Wind: 3mph
Humidity: 31%   Direction: 140°SE
Pressure: 30.21"   Gusts: NA
Location:  40.67°N, 4.09°W
Report Text: LEVS 311500Z 14003KT 100V190 CAVOK 24/06 Q1023
Loading
Personal Weather Stations






























Interactive Weather Map
Tropical Storm Tracking
New forecast layout! Learn more

10-Day Weather Forecast

Advertisements
Track Severe Weather on mobile